This is the latest recevied weather packets stored in our database for station/object EB1HRW. If no packets are shown the sender has not sent any weather packets the latest 10 day(s).
| Time | Temp. | Humidity | Pressure | Rain* | Wind** | Luminosity | Snow |
|---|---|---|---|---|---|---|---|
| 1777816236 | 14.44° C | 77% | 1010.6 hPa | 0.76 mm | - | - | - |
| 1777815335 | 14.44° C | 82% | 1010.7 hPa | 0.76 mm | - | - | - |
| 1777803749 | 12.22° C | 72% | 1012.4 hPa | 0 mm | - | - | - |
| 1777802850 | 12.22° C | 71% | 1012.5 hPa | 0 mm | - | - | - |
| 1777801951 | 12.22° C | 72% | 1012.6 hPa | 0 mm | - | - | - |
| 1777801050 | 12.22° C | 73% | 1012.6 hPa | 0 mm | - | - | - |
| 1777800151 | 12.22° C | 74% | 1012.7 hPa | 0 mm | - | - | - |
| 1777799250 | 11.67° C | 74% | 1012.7 hPa | 0 mm | - | - | - |
| 1777798350 | 11.67° C | 74% | 1012.8 hPa | 0 mm | - | - | - |
| 1777797449 | 11.67° C | 74% | 1012.9 hPa | 0 mm | - | - | - |
| 1777796550 | 11.11° C | 74% | 1013.1 hPa | 0.51 mm | - | - | - |
| 1777795650 | 10.56° C | 74% | 1013.1 hPa | 0.51 mm | - | - | - |
| 1777794751 | 10.56° C | 74% | 1013.1 hPa | 0.51 mm | - | - | - |
| 1777793851 | 10.56° C | 73% | 1013.2 hPa | 0.51 mm | - | - | - |
| 1777792949 | 10.56° C | 73% | 1012.9 hPa | 0.51 mm | - | - | - |
| 1777792050 | 10.56° C | 73% | 1013 hPa | 0.51 mm | - | - | - |
| 1777791152 | 10.56° C | 73% | 1012.9 hPa | 0.51 mm | - | - | - |
| 1777790249 | 10.56° C | 74% | 1012.7 hPa | 0.25 mm | - | - | - |
| 1777789350 | 10.56° C | 75% | 1012.6 hPa | 0 mm | - | - | - |
| 1777788450 | 10.56° C | 74% | 1012.4 hPa | 0 mm | - | - | - |
| 1777785750 | 9.44° C | 76% | 1012.6 hPa | 0 mm | - | - | - |
| 1777784851 | 10° C | 76% | 1012.6 hPa | 0 mm | - | - | - |
| 1777783949 | 10° C | 77% | 1012.6 hPa | 0 mm | - | - | - |
| 1777783050 | 10° C | 78% | 1012.7 hPa | 0 mm | - | - | - |
| 1777782150 | 10° C | 78% | 1012.7 hPa | 0 mm | - | - | - |
* Rain latest hour (hover to see other rain measurements)
** Current wind speed in m/s (hover to see current wind gust speed)